Weather at King Feisal Air Base

Public forecast

Using degrees Celsius for public forecast. Weather courtesy of forecast.io.

Closest aviation weather report (METAR) to King Feisal Air Base

Report is more than 2 hours old.

Closest report is Ramon International Airport, 69.6 nm (128.9 km) WSW.

2024/06/18 19:50 (retrieved 2 hours ago)

LLER 181950Z 36016KT CAVOK 35/15 Q1007

Closest aviation forecast (TAF) to King Feisal Air Base

Closest forecast is Ramon International Airport, 69.6 nm (128.9 km) WSW.

2024/06/18 18:00 (retrieved 4 hours ago)

TAF LLER 181701Z 1818/1918 36012KT CAVOK TX44/1913Z TN28/1904Z